createdAt,value
2023-04-30T00:00:06.201Z,9.00
2023-04-30T00:01:03.656Z,9.00
2023-04-30T00:02:03.249Z,9.00
2023-04-30T00:03:03.931Z,9.00
2023-04-30T00:04:09.111Z,8.90
2023-04-30T00:05:03.649Z,8.90
2023-04-30T00:06:10.923Z,8.80
2023-04-30T00:07:03.438Z,8.80
2023-04-30T00:08:03.985Z,8.80
2023-04-30T00:09:03.606Z,8.80
2023-04-30T00:10:03.598Z,8.80
2023-04-30T00:11:03.553Z,8.70
2023-04-30T00:12:09.185Z,8.70
2023-04-30T00:13:06.212Z,8.70
2023-04-30T00:14:06.230Z,8.70
2023-04-30T00:15:03.726Z,8.70
2023-04-30T00:16:03.299Z,8.60
2023-04-30T00:17:06.500Z,8.60
2023-04-30T00:18:09.129Z,8.50
2023-04-30T00:19:06.263Z,8.50
2023-04-30T00:20:06.266Z,8.50
2023-04-30T00:21:03.688Z,8.50
2023-04-30T00:22:03.611Z,8.50
2023-04-30T00:23:05.703Z,8.50
2023-04-30T00:24:03.158Z,8.40
2023-04-30T00:25:06.267Z,8.40
2023-04-30T00:26:06.278Z,8.40
2023-04-30T00:27:03.650Z,8.40
2023-04-30T00:28:05.747Z,8.40
2023-04-30T00:29:08.260Z,8.30
2023-04-30T00:30:03.665Z,8.30
2023-04-30T00:31:05.783Z,8.30
2023-04-30T00:32:03.274Z,8.30
2023-04-30T00:33:04.064Z,8.30
2023-04-30T00:34:08.920Z,8.20
2023-04-30T00:35:03.332Z,8.20
2023-04-30T00:36:06.432Z,8.10
2023-04-30T00:37:03.842Z,8.10
2023-04-30T00:38:03.864Z,8.10
2023-04-30T00:39:03.393Z,8.10
2023-04-30T00:40:04.046Z,8.10
2023-04-30T00:41:06.253Z,7.90
2023-04-30T00:42:03.757Z,7.90
2023-04-30T00:43:03.291Z,8.00
2023-04-30T00:44:08.939Z,7.90
2023-04-30T00:45:05.948Z,7.90
2023-04-30T00:46:03.516Z,7.90
2023-04-30T00:47:03.196Z,7.90
2023-04-30T00:48:03.878Z,7.90
2023-04-30T00:50:03.344Z,7.90
2023-04-30T00:51:03.881Z,7.80
2023-04-30T00:52:03.484Z,7.80
2023-04-30T00:53:04.068Z,7.80
2023-04-30T00:55:03.267Z,7.70
2023-04-30T00:56:11.493Z,7.70
2023-04-30T00:57:04.004Z,7.70
2023-04-30T00:58:06.191Z,7.70
2023-04-30T00:59:03.689Z,7.70
2023-04-30T01:00:03.227Z,7.60
2023-04-30T01:01:06.411Z,7.60
2023-04-30T01:02:09.116Z,7.60
2023-04-30T01:04:03.544Z,7.60
2023-04-30T01:05:04.107Z,7.60
2023-04-30T01:07:03.430Z,7.50
2023-04-30T01:08:09.130Z,7.50
2023-04-30T01:09:03.599Z,7.50
2023-04-30T01:10:05.711Z,7.50
2023-04-30T01:11:03.119Z,7.40
2023-04-30T01:12:03.691Z,7.50
2023-04-30T01:13:03.236Z,7.40
2023-04-30T01:14:06.394Z,7.40
2023-04-30T01:15:03.861Z,7.40
2023-04-30T01:16:05.931Z,7.40
2023-04-30T01:17:03.557Z,7.40
2023-04-30T01:18:03.215Z,7.40
2023-04-30T01:19:04.121Z,7.40
2023-04-30T01:21:03.427Z,7.30
2023-04-30T01:22:04.018Z,7.30
2023-04-30T01:23:03.626Z,7.30
2023-04-30T01:24:03.185Z,7.20
2023-04-30T01:25:03.784Z,7.20
2023-04-30T01:27:03.904Z,7.20
2023-04-30T01:28:03.426Z,7.10
2023-04-30T01:29:06.603Z,7.10
2023-04-30T01:30:04.139Z,7.10
2023-04-30T01:31:03.715Z,7.20
2023-04-30T01:32:05.960Z,7.10
2023-04-30T01:33:06.080Z,7.10
2023-04-30T01:34:03.677Z,7.10
2023-04-30T01:35:03.470Z,7.10
2023-04-30T01:36:04.088Z,7.10
2023-04-30T01:37:03.709Z,7.10
2023-04-30T01:38:03.228Z,7.10
2023-04-30T01:39:03.745Z,7.10
2023-04-30T01:40:05.930Z,7.00
2023-04-30T01:41:03.383Z,7.00
2023-04-30T01:42:03.981Z,7.00
2023-04-30T01:43:06.182Z,7.00
2023-04-30T01:44:03.652Z,7.00
2023-04-30T01:45:03.621Z,6.90
2023-04-30T01:46:05.879Z,7.00
2023-04-30T01:47:03.455Z,7.00
2023-04-30T01:48:04.050Z,6.90
2023-04-30T01:49:03.984Z,6.90
2023-04-30T01:51:06.635Z,6.90
2023-04-30T01:52:04.089Z,6.90
2023-04-30T01:53:06.265Z,6.90
2023-04-30T01:54:03.702Z,6.90
2023-04-30T01:55:03.320Z,6.90
2023-04-30T01:56:03.848Z,6.90
2023-04-30T01:57:06.338Z,6.90
2023-04-30T01:58:06.345Z,6.90
2023-04-30T01:59:06.334Z,6.90
2023-04-30T02:00:03.856Z,6.90
2023-04-30T02:01:03.522Z,6.90
2023-04-30T02:02:05.727Z,6.80
2023-04-30T02:03:03.711Z,6.90
2023-04-30T02:04:05.937Z,6.80
2023-04-30T02:05:06.275Z,6.80
2023-04-30T02:06:03.784Z,6.80
2023-04-30T02:07:03.406Z,6.80
2023-04-30T02:08:06.548Z,6.80
2023-04-30T02:09:06.613Z,6.80
2023-04-30T02:10:04.121Z,6.70
2023-04-30T02:11:06.277Z,6.70
2023-04-30T02:12:03.738Z,6.70
2023-04-30T02:13:03.322Z,6.70
2023-04-30T02:14:03.896Z,6.70
2023-04-30T02:15:03.502Z,6.60
2023-04-30T02:16:04.166Z,6.60
2023-04-30T02:17:03.916Z,6.60
2023-04-30T02:18:06.113Z,6.60
2023-04-30T02:19:03.728Z,6.60
2023-04-30T02:20:03.357Z,6.60
2023-04-30T02:21:06.562Z,6.50
2023-04-30T02:22:03.980Z,6.50
2023-04-30T02:23:03.551Z,6.50
2023-04-30T02:24:04.094Z,6.50
2023-04-30T02:25:06.206Z,6.50
2023-04-30T02:26:03.651Z,6.50
2023-04-30T02:27:05.748Z,6.40
2023-04-30T02:28:05.751Z,6.40
2023-04-30T02:29:05.781Z,6.40
2023-04-30T02:30:03.284Z,6.40
2023-04-30T02:31:03.886Z,6.40
2023-04-30T02:33:06.601Z,6.30
2023-04-30T02:34:04.090Z,6.30
2023-04-30T02:35:06.141Z,6.20
2023-04-30T02:36:06.101Z,6.20
2023-04-30T02:37:03.469Z,6.20
2023-04-30T02:38:03.984Z,6.20
2023-04-30T02:40:04.039Z,6.20
2023-04-30T02:41:06.160Z,6.20
2023-04-30T02:42:03.569Z,6.20
2023-04-30T02:43:04.069Z,6.10
2023-04-30T02:44:13.823Z,6.10
2023-04-30T02:45:03.298Z,6.10
2023-04-30T02:46:03.418Z,6.10
2023-04-30T02:47:04.099Z,6.10
2023-04-30T02:49:05.745Z,6.10
2023-04-30T02:50:04.095Z,6.20
2023-04-30T02:52:06.645Z,6.10
2023-04-30T02:53:06.549Z,6.10
2023-04-30T02:54:03.951Z,6.20
2023-04-30T02:55:03.484Z,6.10
2023-04-30T02:56:04.045Z,6.10
2023-04-30T02:57:03.515Z,6.20
2023-04-30T02:58:04.040Z,6.20
2023-04-30T02:59:08.692Z,6.20
2023-04-30T03:00:06.645Z,6.20
2023-04-30T03:01:04.029Z,6.20
2023-04-30T03:02:03.573Z,6.20
2023-04-30T03:03:06.648Z,6.30
2023-04-30T03:04:08.295Z,6.30
2023-04-30T03:05:03.718Z,6.30
2023-04-30T03:06:05.834Z,6.30
2023-04-30T03:07:05.976Z,6.30
2023-04-30T03:08:06.001Z,6.40
2023-04-30T03:09:05.957Z,6.30
2023-04-30T03:10:05.944Z,6.30
2023-04-30T03:11:03.375Z,6.30
2023-04-30T03:12:06.408Z,6.40
2023-04-30T03:13:03.748Z,6.40
2023-04-30T03:14:03.215Z,6.40
2023-04-30T03:15:03.765Z,6.40
2023-04-30T03:17:06.402Z,6.40
2023-04-30T03:18:03.771Z,6.40
2023-04-30T03:19:03.344Z,6.50
2023-04-30T03:20:06.450Z,6.50
2023-04-30T03:21:03.911Z,6.50
2023-04-30T03:22:08.435Z,6.60
2023-04-30T03:23:06.351Z,6.60
2023-04-30T03:24:03.749Z,6.60
2023-04-30T03:25:03.325Z,6.60
2023-04-30T03:26:06.454Z,6.60
2023-04-30T03:27:03.800Z,6.60
2023-04-30T03:29:03.835Z,6.70
2023-04-30T03:30:03.447Z,6.70
2023-04-30T03:31:04.016Z,6.70
2023-04-30T03:33:03.379Z,6.70
2023-04-30T03:34:04.041Z,6.80
2023-04-30T03:35:03.682Z,6.80
2023-04-30T03:36:05.715Z,6.80
2023-04-30T03:37:06.678Z,6.80
2023-04-30T03:38:04.001Z,6.80
2023-04-30T03:39:03.495Z,6.80
2023-04-30T03:40:06.516Z,6.90
2023-04-30T03:41:06.408Z,6.90
2023-04-30T03:42:08.884Z,6.90
2023-04-30T03:43:03.331Z,6.90
2023-04-30T03:44:06.454Z,7.00
2023-04-30T03:45:03.924Z,7.00
2023-04-30T03:46:06.132Z,7.00
2023-04-30T03:47:03.708Z,7.00
2023-04-30T03:48:10.891Z,7.00
2023-04-30T03:49:06.058Z,7.10
2023-04-30T03:50:03.224Z,7.10
2023-04-30T03:51:08.850Z,7.10
2023-04-30T03:53:03.677Z,7.10
2023-04-30T03:54:05.776Z,7.20
2023-04-30T03:55:03.131Z,7.20
2023-04-30T03:56:03.648Z,7.20
2023-04-30T03:57:03.271Z,7.20
2023-04-30T03:58:03.851Z,7.20
2023-04-30T03:59:03.392Z,7.20
2023-04-30T04:00:03.857Z,7.20
2023-04-30T04:02:03.895Z,7.20
2023-04-30T04:03:06.187Z,7.20
2023-04-30T04:04:03.623Z,7.20
2023-04-30T04:05:03.192Z,7.30
2023-04-30T04:06:06.262Z,7.30
2023-04-30T04:07:06.181Z,7.30
2023-04-30T04:08:06.212Z,7.30
2023-04-30T04:09:03.604Z,7.30
2023-04-30T04:10:05.731Z,7.30
2023-04-30T04:11:04.103Z,7.30
2023-04-30T04:12:06.121Z,7.30
2023-04-30T04:13:06.063Z,7.30
2023-04-30T04:14:03.471Z,7.40
2023-04-30T04:15:06.653Z,7.40
2023-04-30T04:16:04.129Z,7.40
2023-04-30T04:17:03.629Z,7.40
2023-04-30T04:18:06.664Z,7.40
2023-04-30T04:19:05.814Z,7.40
2023-04-30T04:20:05.891Z,7.40
2023-04-30T04:21:06.013Z,7.40
2023-04-30T04:22:08.529Z,7.40
2023-04-30T04:23:06.634Z,7.40
2023-04-30T04:24:06.633Z,7.40
2023-04-30T04:25:06.841Z,7.40
2023-04-30T04:27:03.849Z,7.40
2023-04-30T04:28:03.330Z,7.40
2023-04-30T04:29:03.977Z,7.40
2023-04-30T04:30:06.082Z,7.50
2023-04-30T04:31:03.594Z,7.50
2023-04-30T04:32:09.185Z,7.50
2023-04-30T04:33:05.801Z,7.50
2023-04-30T04:34:05.923Z,7.60
2023-04-30T04:35:03.472Z,7.60
2023-04-30T04:36:08.775Z,7.60
2023-04-30T04:37:05.822Z,7.70
2023-04-30T04:38:05.884Z,7.70
2023-04-30T04:39:03.521Z,7.70
2023-04-30T04:40:04.060Z,7.70
2023-04-30T04:42:06.587Z,8.00
2023-04-30T04:43:04.100Z,8.00
2023-04-30T04:44:03.676Z,8.10
2023-04-30T04:45:05.706Z,8.40
2023-04-30T04:46:06.690Z,8.60
2023-04-30T04:47:04.273Z,8.60
2023-04-30T04:48:06.109Z,9.00
2023-04-30T04:49:08.658Z,9.10
2023-04-30T04:50:04.152Z,9.10
2023-04-30T04:51:06.038Z,9.50
2023-04-30T04:52:03.485Z,9.50
2023-04-30T04:53:06.578Z,9.90
2023-04-30T04:54:03.992Z,9.90
2023-04-30T04:55:03.337Z,10.10
2023-04-30T04:56:03.948Z,10.20
2023-04-30T04:57:03.867Z,10.40
2023-04-30T04:58:03.766Z,10.60
2023-04-30T04:59:05.775Z,10.80
2023-04-30T05:00:03.132Z,10.80
2023-04-30T05:01:06.092Z,11.10
2023-04-30T05:02:06.223Z,11.30
2023-04-30T05:03:03.860Z,11.20
2023-04-30T05:04:03.604Z,11.30
2023-04-30T05:05:05.901Z,11.50
2023-04-30T05:06:05.850Z,11.60
2023-04-30T05:07:03.366Z,11.60
2023-04-30T05:08:03.971Z,11.60
2023-04-30T05:09:03.614Z,11.80
2023-04-30T05:10:03.193Z,11.90
2023-04-30T05:11:03.725Z,12.00
2023-04-30T05:12:03.316Z,12.10
2023-04-30T05:13:03.952Z,12.20
2023-04-30T05:15:06.585Z,12.50
2023-04-30T05:16:09.075Z,12.60
2023-04-30T05:17:06.264Z,12.70
2023-04-30T05:18:03.747Z,12.80
2023-04-30T05:20:03.609Z,12.90
2023-04-30T05:21:05.780Z,13.10
2023-04-30T05:22:05.791Z,13.20
2023-04-30T05:23:05.774Z,13.20
2023-04-30T05:24:03.165Z,13.20
2023-04-30T05:25:03.723Z,13.30
2023-04-30T05:26:05.857Z,13.30
2023-04-30T05:27:03.328Z,13.30
2023-04-30T05:28:03.911Z,13.30
2023-04-30T05:29:08.611Z,13.40
2023-04-30T05:30:09.094Z,13.40
2023-04-30T05:31:03.546Z,13.40
2023-04-30T05:32:04.109Z,13.40
2023-04-30T05:34:03.563Z,13.50
2023-04-30T05:35:04.079Z,13.50
2023-04-30T05:36:03.653Z,13.60
2023-04-30T05:37:05.810Z,13.80
2023-04-30T05:38:03.506Z,13.70
2023-04-30T05:39:03.978Z,13.80
2023-04-30T05:41:06.605Z,14.10
2023-04-30T05:42:06.568Z,14.10
2023-04-30T05:43:11.619Z,14.20
2023-04-30T05:44:06.067Z,14.30
2023-04-30T05:45:08.346Z,14.30
2023-04-30T05:46:06.718Z,14.40
2023-04-30T05:47:08.401Z,14.30
2023-04-30T05:48:06.360Z,14.50
2023-04-30T05:49:03.776Z,14.40
2023-04-30T05:50:05.986Z,14.60
2023-04-30T05:51:03.395Z,14.60
2023-04-30T05:52:06.522Z,14.80
2023-04-30T05:53:03.963Z,14.70
2023-04-30T05:54:03.560Z,14.90
2023-04-30T05:55:06.768Z,15.10
2023-04-30T05:56:08.349Z,15.20
2023-04-30T05:57:03.874Z,15.20
2023-04-30T05:59:06.321Z,15.30
2023-04-30T06:00:06.574Z,15.30
2023-04-30T06:01:04.242Z,15.30
2023-04-30T06:02:03.937Z,15.40
2023-04-30T06:04:03.360Z,15.30
2023-04-30T06:05:04.012Z,15.20
2023-04-30T06:07:03.356Z,15.20
2023-04-30T06:08:04.095Z,15.20
2023-04-30T06:09:03.758Z,15.20
2023-04-30T06:10:03.282Z,15.30
2023-04-30T06:11:08.432Z,15.20
2023-04-30T06:12:07.702Z,15.10
2023-04-30T06:13:06.722Z,15.00
2023-04-30T06:14:10.836Z,14.80
2023-04-30T06:15:03.345Z,14.80
2023-04-30T06:16:06.547Z,14.40
2023-04-30T06:17:06.783Z,14.20
2023-04-30T06:18:08.396Z,14.00
2023-04-30T06:19:03.906Z,14.00
2023-04-30T06:21:03.712Z,13.90
2023-04-30T06:22:05.966Z,13.80
2023-04-30T06:23:06.010Z,13.80
2023-04-30T06:24:03.409Z,13.80
2023-04-30T06:25:03.971Z,13.70
2023-04-30T06:26:03.608Z,13.70
2023-04-30T06:27:04.142Z,13.60
2023-04-30T06:28:07.403Z,13.60
2023-04-30T06:29:06.382Z,13.70
2023-04-30T06:30:06.512Z,13.70
2023-04-30T06:31:09.145Z,13.90
2023-04-30T06:32:08.216Z,14.00
2023-04-30T06:33:04.037Z,14.00
2023-04-30T06:34:03.579Z,14.10
2023-04-30T06:35:05.775Z,14.30
2023-04-30T06:36:03.330Z,14.30
2023-04-30T06:37:03.914Z,14.40
2023-04-30T06:38:03.485Z,14.40
2023-04-30T06:39:04.176Z,14.50
2023-04-30T06:40:06.319Z,14.50
2023-04-30T06:41:08.921Z,14.60
2023-04-30T06:42:06.046Z,14.60
2023-04-30T06:43:03.485Z,14.60
2023-04-30T06:44:04.043Z,14.60
2023-04-30T06:45:06.214Z,14.70
2023-04-30T06:46:03.717Z,14.70
2023-04-30T06:47:03.360Z,14.70
2023-04-30T06:48:04.096Z,14.80
2023-04-30T06:49:11.445Z,14.80
2023-04-30T06:50:03.885Z,14.80
2023-04-30T06:51:06.017Z,14.80
2023-04-30T06:52:05.920Z,14.80
2023-04-30T06:53:08.466Z,14.80
2023-04-30T06:54:03.426Z,14.70
2023-04-30T06:55:06.523Z,14.70
2023-04-30T06:56:06.510Z,14.60
2023-04-30T06:57:06.503Z,14.60
2023-04-30T06:58:03.950Z,14.60
2023-04-30T06:59:06.027Z,14.50
2023-04-30T07:00:05.958Z,14.50
2023-04-30T07:01:03.392Z,14.50
2023-04-30T07:02:06.420Z,14.40
2023-04-30T07:03:06.445Z,14.40
2023-04-30T07:04:06.686Z,14.40
2023-04-30T07:05:04.010Z,14.40
2023-04-30T07:06:06.069Z,14.40
2023-04-30T07:07:03.662Z,14.50
2023-04-30T07:08:05.874Z,14.40
2023-04-30T07:09:05.843Z,14.30
2023-04-30T07:10:05.794Z,14.20
2023-04-30T07:11:03.180Z,14.30
2023-04-30T07:12:03.698Z,14.20
2023-04-30T07:14:06.231Z,14.20
2023-04-30T07:15:11.126Z,14.20
2023-04-30T07:16:03.728Z,14.20
2023-04-30T07:17:03.386Z,14.20
2023-04-30T07:18:04.128Z,14.10
2023-04-30T07:19:03.876Z,14.20
2023-04-30T07:20:03.479Z,14.20
2023-04-30T07:21:04.028Z,14.20
2023-04-30T07:22:03.585Z,14.20
2023-04-30T07:23:06.693Z,14.30
2023-04-30T07:24:06.599Z,14.30
2023-04-30T07:25:04.081Z,14.30
2023-04-30T07:26:03.631Z,14.40
2023-04-30T07:27:03.125Z,14.30
2023-04-30T07:28:03.746Z,14.40
2023-04-30T07:29:08.589Z,14.20
2023-04-30T07:30:04.101Z,14.30
2023-04-30T07:31:03.751Z,14.30
2023-04-30T07:32:05.852Z,14.30
2023-04-30T07:33:03.326Z,14.40
2023-04-30T07:34:03.434Z,14.50
2023-04-30T07:35:06.607Z,14.50
2023-04-30T07:36:06.496Z,14.50
2023-04-30T07:37:06.527Z,14.50
2023-04-30T07:38:04.021Z,14.50
2023-04-30T07:39:03.601Z,14.60
2023-04-30T07:40:03.325Z,14.50
2023-04-30T07:41:04.056Z,14.60
2023-04-30T07:42:03.557Z,14.60
2023-04-30T07:43:04.130Z,14.60
2023-04-30T07:44:06.394Z,14.70
2023-04-30T07:45:03.876Z,14.70
2023-04-30T07:46:03.552Z,14.80
2023-04-30T07:47:03.344Z,14.80
2023-04-30T07:48:04.131Z,14.80
2023-04-30T07:49:06.321Z,14.70
2023-04-30T07:50:03.830Z,14.70
2023-04-30T07:51:03.435Z,14.70
2023-04-30T07:52:04.032Z,14.70
2023-04-30T07:53:03.634Z,14.70
2023-04-30T07:54:15.872Z,14.80
2023-04-30T07:55:03.278Z,14.70
2023-04-30T07:56:03.828Z,14.80
2023-04-30T07:57:03.410Z,14.80
2023-04-30T07:58:03.941Z,14.80
2023-04-30T07:59:03.555Z,14.80
2023-04-30T08:00:03.236Z,14.80
2023-04-30T08:01:08.850Z,15.00
2023-04-30T08:03:04.168Z,15.00
2023-04-30T08:04:06.548Z,15.10
2023-04-30T08:05:05.778Z,15.10
2023-04-30T08:06:05.747Z,15.00
2023-04-30T08:07:03.354Z,15.10
2023-04-30T08:08:03.988Z,15.00
2023-04-30T08:09:06.341Z,15.10
2023-04-30T08:10:06.378Z,15.10
2023-04-30T08:11:03.859Z,15.10
2023-04-30T08:12:05.934Z,15.10
2023-04-30T08:13:03.385Z,15.10
2023-04-30T08:14:06.565Z,15.10
2023-04-30T08:15:06.539Z,15.00
2023-04-30T08:16:06.595Z,15.00
2023-04-30T08:17:04.351Z,15.00
2023-04-30T08:18:06.593Z,14.90
2023-04-30T08:19:04.176Z,14.90
2023-04-30T08:20:06.327Z,14.80
2023-04-30T08:21:03.688Z,14.80
2023-04-30T08:23:06.196Z,14.80
2023-04-30T08:24:03.607Z,14.70
2023-04-30T08:25:04.514Z,14.80
2023-04-30T08:26:04.312Z,14.80
2023-04-30T08:27:06.465Z,14.70
2023-04-30T08:28:06.452Z,14.70
2023-04-30T08:29:03.879Z,14.60
2023-04-30T08:30:06.023Z,14.60
2023-04-30T08:31:06.009Z,14.60
2023-04-30T08:32:06.089Z,14.50
2023-04-30T08:33:03.773Z,14.60
2023-04-30T08:34:08.533Z,14.50
2023-04-30T08:35:04.088Z,14.50
2023-04-30T08:36:06.184Z,14.60
2023-04-30T08:37:08.773Z,14.60
2023-04-30T08:38:03.229Z,14.60
2023-04-30T08:39:03.801Z,14.60
2023-04-30T08:40:03.403Z,14.60
2023-04-30T08:41:03.901Z,14.60
2023-04-30T08:42:05.996Z,14.70
2023-04-30T08:43:06.034Z,14.70
2023-04-30T08:44:03.973Z,14.70
2023-04-30T08:45:04.254Z,14.70
2023-04-30T08:47:03.562Z,14.70
2023-04-30T08:48:06.746Z,14.70
2023-04-30T08:49:05.853Z,14.70
2023-04-30T08:50:03.246Z,14.70
2023-04-30T08:51:03.743Z,14.70
2023-04-30T08:52:05.944Z,14.70
2023-04-30T08:53:05.987Z,14.70
2023-04-30T08:54:03.530Z,14.60
2023-04-30T08:55:06.632Z,14.60
2023-04-30T08:56:04.126Z,14.60
2023-04-30T08:57:03.705Z,14.60
2023-04-30T08:58:03.319Z,14.50
2023-04-30T08:59:06.209Z,14.50
2023-04-30T09:00:06.114Z,14.50
2023-04-30T09:01:03.594Z,14.50
2023-04-30T09:02:08.317Z,14.60
2023-04-30T09:03:03.984Z,14.60
2023-04-30T09:04:03.837Z,14.60
2023-04-30T09:06:05.926Z,14.70
2023-04-30T09:07:04.485Z,14.70
2023-04-30T09:08:04.497Z,14.70
2023-04-30T09:10:06.343Z,14.80
2023-04-30T09:11:03.724Z,14.80
2023-04-30T09:12:05.895Z,14.80
2023-04-30T09:13:08.348Z,14.80
2023-04-30T09:14:06.359Z,14.90
2023-04-30T09:15:03.958Z,14.90
2023-04-30T09:16:06.368Z,14.80
2023-04-30T09:17:03.940Z,14.80
2023-04-30T09:19:09.077Z,14.90
2023-04-30T09:20:06.025Z,14.90
2023-04-30T09:21:03.591Z,14.90
2023-04-30T09:22:05.896Z,14.90
2023-04-30T09:23:03.319Z,14.90
2023-04-30T09:24:03.957Z,14.90
2023-04-30T09:25:03.489Z,14.90
2023-04-30T09:26:04.060Z,14.90
2023-04-30T09:27:06.212Z,15.00
2023-04-30T09:28:03.768Z,15.00
2023-04-30T09:29:03.285Z,15.10
2023-04-30T09:30:04.107Z,15.10
2023-04-30T09:32:03.679Z,15.20
2023-04-30T09:33:03.385Z,15.20
2023-04-30T09:34:03.909Z,15.20
2023-04-30T09:35:06.067Z,15.20
2023-04-30T09:36:08.507Z,15.20
2023-04-30T09:37:06.587Z,15.30
2023-04-30T09:38:04.112Z,15.20
2023-04-30T09:39:07.635Z,15.30
2023-04-30T09:40:03.208Z,15.30
2023-04-30T09:41:03.805Z,15.20
2023-04-30T09:42:03.401Z,15.30
2023-04-30T09:43:03.964Z,15.30
2023-04-30T09:44:08.564Z,15.20
2023-04-30T09:45:09.097Z,15.10
2023-04-30T09:46:06.013Z,15.20
2023-04-30T09:47:06.044Z,15.20
2023-04-30T09:48:16.197Z,15.20
2023-04-30T09:50:03.848Z,15.20
2023-04-30T09:51:03.381Z,15.20
2023-04-30T09:52:06.472Z,15.10
2023-04-30T09:53:03.900Z,15.10
2023-04-30T09:54:06.019Z,15.20
2023-04-30T09:55:03.419Z,15.10
2023-04-30T09:56:04.010Z,15.20
2023-04-30T09:57:03.636Z,15.20
2023-04-30T09:58:03.206Z,15.30
2023-04-30T09:59:06.344Z,15.30
2023-04-30T10:00:03.700Z,15.30
2023-04-30T10:01:05.797Z,15.40
2023-04-30T10:02:03.313Z,15.40
2023-04-30T10:03:06.537Z,15.50
2023-04-30T10:04:04.095Z,15.50
2023-04-30T10:05:03.754Z,15.50
2023-04-30T10:06:05.939Z,15.50
2023-04-30T10:07:06.034Z,15.50
2023-04-30T10:08:05.928Z,15.40
2023-04-30T10:09:08.459Z,15.40
2023-04-30T10:10:06.328Z,15.40
2023-04-30T10:11:11.342Z,15.40
2023-04-30T10:12:06.261Z,15.30
2023-04-30T10:13:04.549Z,15.30
2023-04-30T10:14:03.822Z,15.30
2023-04-30T10:15:03.359Z,15.40
2023-04-30T10:16:06.369Z,15.30
2023-04-30T10:17:03.834Z,15.30
2023-04-30T10:18:08.553Z,15.30
2023-04-30T10:19:06.648Z,15.40
2023-04-30T10:20:04.093Z,15.40
2023-04-30T10:21:06.249Z,15.40
2023-04-30T10:22:03.692Z,15.40
2023-04-30T10:23:03.267Z,15.50
2023-04-30T10:24:06.357Z,15.50
2023-04-30T10:25:03.780Z,15.50
2023-04-30T10:26:05.839Z,15.50
2023-04-30T10:27:03.182Z,15.50
2023-04-30T10:28:04.920Z,15.50
2023-04-30T10:29:06.067Z,15.60
2023-04-30T10:30:03.480Z,15.60
2023-04-30T10:31:04.117Z,15.70
2023-04-30T10:32:03.644Z,15.70
2023-04-30T10:33:03.209Z,15.70
2023-04-30T10:34:03.779Z,15.80
2023-04-30T10:35:05.824Z,15.90
2023-04-30T10:36:05.793Z,15.90
2023-04-30T10:37:03.191Z,15.80
2023-04-30T10:38:08.740Z,15.90
2023-04-30T10:39:05.720Z,15.90
2023-04-30T10:40:04.169Z,15.90
2023-04-30T10:41:06.357Z,15.90
2023-04-30T10:42:06.344Z,15.90
2023-04-30T10:43:06.293Z,15.90
2023-04-30T10:44:03.894Z,16.00
2023-04-30T10:45:03.373Z,16.00
2023-04-30T10:46:06.586Z,15.90
2023-04-30T10:47:04.133Z,15.90
2023-04-30T10:48:03.817Z,15.90
2023-04-30T10:49:05.904Z,15.90
2023-04-30T10:50:03.299Z,15.90
2023-04-30T10:51:03.798Z,15.90
2023-04-30T10:52:08.428Z,15.90
2023-04-30T10:53:03.931Z,15.90
2023-04-30T10:54:03.523Z,15.90
2023-04-30T10:55:06.580Z,16.10
2023-04-30T10:56:03.968Z,16.10
2023-04-30T10:57:03.480Z,16.10
2023-04-30T10:58:06.620Z,16.20
2023-04-30T10:59:04.001Z,16.20
2023-04-30T11:01:04.184Z,16.20
2023-04-30T11:02:04.142Z,16.20
2023-04-30T11:04:06.164Z,16.10
2023-04-30T11:05:06.348Z,16.00
2023-04-30T11:06:04.162Z,16.10
2023-04-30T11:07:03.741Z,16.00
2023-04-30T11:08:05.754Z,16.00
2023-04-30T11:09:04.100Z,16.00
2023-04-30T11:10:08.624Z,15.90
2023-04-30T11:11:04.081Z,15.90
2023-04-30T11:12:03.632Z,15.80
2023-04-30T11:13:03.210Z,15.80
2023-04-30T11:14:06.337Z,15.80
2023-04-30T11:15:06.332Z,15.80
2023-04-30T11:16:04.059Z,15.70
2023-04-30T11:17:03.676Z,15.80
2023-04-30T11:18:05.796Z,15.70
2023-04-30T11:19:05.881Z,15.70
2023-04-30T11:20:05.905Z,15.80
2023-04-30T11:21:03.379Z,15.80
2023-04-30T11:22:09.080Z,15.80
2023-04-30T11:24:05.723Z,15.80
2023-04-30T11:25:04.091Z,15.80
2023-04-30T11:26:03.707Z,15.90
2023-04-30T11:27:03.366Z,15.90
2023-04-30T11:28:03.954Z,15.90
2023-04-30T11:29:03.607Z,15.90
2023-04-30T11:30:05.755Z,15.90
2023-04-30T11:31:03.233Z,15.90
2023-04-30T11:32:03.788Z,15.90
2023-04-30T11:33:05.907Z,16.00
2023-04-30T11:34:03.475Z,16.00
2023-04-30T11:35:04.133Z,16.00
2023-04-30T11:36:06.327Z,15.90
2023-04-30T11:37:03.827Z,15.90
2023-04-30T11:38:05.943Z,16.00
2023-04-30T11:39:08.581Z,15.90
2023-04-30T11:40:06.497Z,15.90
2023-04-30T11:41:06.454Z,15.90
2023-04-30T11:42:03.937Z,15.90
2023-04-30T11:43:03.497Z,15.90
2023-04-30T11:44:04.099Z,15.90
2023-04-30T11:45:06.201Z,15.90
2023-04-30T11:46:03.600Z,15.90
2023-04-30T11:47:06.636Z,15.90
2023-04-30T11:48:04.198Z,15.90
2023-04-30T11:49:06.344Z,15.90
2023-04-30T11:51:05.707Z,15.90
2023-04-30T11:52:03.268Z,15.90
2023-04-30T11:53:06.300Z,15.90
2023-04-30T11:54:03.648Z,15.90
2023-04-30T11:55:05.682Z,15.80
2023-04-30T11:56:04.111Z,15.80
2023-04-30T11:57:03.692Z,15.80
2023-04-30T11:58:15.859Z,15.80
2023-04-30T11:59:05.820Z,15.80
2023-04-30T12:00:08.374Z,15.80
2023-04-30T12:01:06.725Z,15.90
2023-04-30T12:02:04.259Z,15.80
2023-04-30T12:03:09.042Z,15.90
2023-04-30T12:05:05.758Z,15.90
2023-04-30T12:06:03.238Z,15.90
2023-04-30T12:07:06.483Z,15.90
2023-04-30T12:08:03.906Z,15.90
2023-04-30T12:10:06.467Z,15.90
2023-04-30T12:11:03.975Z,15.90
2023-04-30T12:12:03.516Z,15.90
2023-04-30T12:13:09.153Z,15.90
2023-04-30T12:14:06.097Z,15.90
2023-04-30T12:15:06.131Z,16.00
2023-04-30T12:16:03.538Z,16.00
2023-04-30T12:17:04.236Z,16.10
2023-04-30T12:19:03.504Z,16.10
2023-04-30T12:20:06.601Z,16.00
2023-04-30T12:21:09.068Z,15.90
2023-04-30T12:22:06.054Z,15.90
2023-04-30T12:23:06.159Z,15.90
2023-04-30T12:24:03.779Z,15.90
2023-04-30T12:25:03.363Z,15.90
2023-04-30T12:26:06.385Z,15.90
2023-04-30T12:27:03.751Z,15.90
2023-04-30T12:28:05.817Z,15.90
2023-04-30T12:29:05.719Z,15.90
2023-04-30T12:30:04.037Z,15.90
2023-04-30T12:31:06.140Z,15.90
2023-04-30T12:32:03.677Z,15.90
2023-04-30T12:33:03.285Z,15.90
2023-04-30T12:34:04.006Z,15.80
2023-04-30T12:35:03.499Z,15.80
2023-04-30T12:36:06.527Z,15.80
2023-04-30T12:37:03.933Z,15.90
2023-04-30T12:38:05.935Z,15.90
2023-04-30T12:39:03.316Z,15.90
2023-04-30T12:40:03.778Z,15.90
2023-04-30T12:42:06.391Z,16.00
2023-04-30T12:43:03.749Z,16.00
2023-04-30T12:44:03.267Z,16.10
2023-04-30T12:45:03.824Z,16.00
2023-04-30T12:46:05.927Z,16.10
2023-04-30T12:47:05.989Z,16.10
2023-04-30T12:48:11.082Z,16.10
2023-04-30T12:49:06.280Z,16.20
2023-04-30T12:50:03.742Z,16.10
2023-04-30T12:51:03.394Z,16.10
2023-04-30T12:52:04.016Z,16.10
2023-04-30T12:53:03.680Z,16.00
2023-04-30T12:54:05.855Z,16.00
2023-04-30T12:55:03.251Z,16.00
2023-04-30T12:56:03.809Z,15.90
2023-04-30T12:57:03.311Z,15.90
2023-04-30T12:58:03.872Z,15.90
2023-04-30T13:00:03.828Z,15.90
2023-04-30T13:01:06.015Z,15.80
2023-04-30T13:02:03.561Z,15.90
2023-04-30T13:03:04.244Z,15.90
2023-04-30T13:04:06.692Z,15.90
2023-04-30T13:06:04.025Z,15.90
2023-04-30T13:07:03.788Z,15.90
2023-04-30T13:08:05.955Z,15.90
2023-04-30T13:09:03.399Z,15.90
2023-04-30T13:10:08.248Z,16.00
2023-04-30T13:11:03.676Z,16.00
2023-04-30T13:12:05.870Z,16.10
2023-04-30T13:13:08.306Z,16.00
2023-04-30T13:15:03.355Z,16.10
2023-04-30T13:16:04.027Z,16.10
2023-04-30T13:17:06.401Z,16.10
2023-04-30T13:18:03.801Z,16.00
2023-04-30T13:19:05.931Z,16.20
2023-04-30T13:20:03.380Z,16.10
2023-04-30T13:21:03.254Z,16.10
2023-04-30T13:22:03.874Z,16.10
2023-04-30T13:24:03.967Z,16.20
2023-04-30T13:26:06.530Z,16.10
2023-04-30T13:27:03.991Z,16.10
2023-04-30T13:28:03.504Z,16.10
2023-04-30T13:29:04.068Z,16.10
2023-04-30T13:30:03.785Z,16.20
2023-04-30T13:31:03.454Z,16.10
2023-04-30T13:32:06.741Z,16.30
2023-04-30T13:33:06.729Z,16.20
2023-04-30T13:35:06.299Z,16.30
2023-04-30T13:36:03.699Z,16.30
2023-04-30T13:37:05.847Z,16.20
2023-04-30T13:38:05.959Z,16.30
2023-04-30T13:39:03.486Z,16.20
2023-04-30T13:40:11.658Z,16.20
2023-04-30T13:41:06.612Z,16.20
2023-04-30T13:42:03.961Z,16.20
2023-04-30T13:44:03.957Z,16.20
2023-04-30T13:46:06.488Z,16.20
2023-04-30T13:47:06.598Z,16.20
2023-04-30T13:48:04.065Z,16.20
2023-04-30T13:49:06.140Z,16.20
2023-04-30T13:50:03.550Z,16.10
2023-04-30T13:51:04.091Z,16.20
2023-04-30T13:52:06.196Z,16.20